Hyner, Pennsylvania
Current Conditions -  °F | °C
As of 6:15 PM on Tuesday 25 Nov 2014 (Local Time) from KN38 Reporting Station
Clear Clear  
Wind Chill: 35°   Ceiling: Unl
Heat Index: 39°   Visibility: 10mi
Dew Point: 25°   Wind: 6mph
Humidity: 56%   Direction: 230°SW
Pressure: 30.03"   Gusts: NA
Location:  41.33°N, 77.64°W
Report Text: KN38 252315Z AUTO 23005KT 10SM CLR 04/M04 A3003 RMK AO2
Loading
Personal Weather Stations






























Interactive Weather Map New forecast layout! Learn more

10-Day Weather Forecast

Advertisements
Track Severe Weather on mobile